Greensburg, Kansas
Current Conditions -  °F | °C
As of 4:15 PM on Wednesday 28 Jan 2015 (Local Time) from KPTT Reporting Station
Clear Clear  
Wind Chill: 70°   Ceiling: Unl
Heat Index: 70°   Visibility: 10mi
Dew Point: 28°   Wind: 12mph
Humidity: 21%   Direction: 330°NNW
Pressure: 29.86"   Gusts: NA
Location:  37.6°N, 99.29°W
Report Text: KPTT 282215Z AUTO 33010KT 10SM CLR 21/M02 A2986 RMK AO2
Loading
Personal Weather Stations






























Interactive Weather Map New forecast layout! Learn more

10-Day Weather Forecast

Advertisements
Track Severe Weather on mobile